Time,TemperatureF,DewpointF,PressureIn,WindDirection,WindDirectionDegrees,WindSpeedMPH,WindSpeedGustMPH,Humidity,HourlyPrecipIn,Conditions,Clouds,dailyrainin,SoftwareType,DateUTC
2013-02-26 00:06:00,38.1,36.0,30.20,South,177,0.0,0.0,93,0.00,,,0.00,weatherlink.com 1.10,2013-02-26 08:06:00,
2013-02-26 00:21:00,37.8,36.0,30.19,South,177,0.0,0.0,93,0.00,,,0.00,weatherlink.com 1.10,2013-02-26 08:21:00,
2013-02-26 00:36:00,37.5,36.0,30.20,South,176,0.0,0.0,93,0.00,,,0.00,weatherlink.com 1.10,2013-02-26 08:36:00,
2013-02-26 00:51:00,37.3,36.0,30.19,South,177,0.0,0.0,93,0.00,,,0.00,weatherlink.com 1.10,2013-02-26 08:51:00,
2013-02-26 01:06:00,36.9,35.0,30.18,South,176,0.0,0.0,93,0.00,,,0.00,weatherlink.com 1.10,2013-02-26 09:06:00,
2013-02-26 01:21:00,36.6,35.0,30.18,South,177,0.0,0.0,93,0.00,,,0.00,weatherlink.com 1.10,2013-02-26 09:21:00,
2013-02-26 01:36:00,36.2,34.0,30.18,South,177,0.0,0.0,93,0.00,,,0.00,weatherlink.com 1.10,2013-02-26 09:36:00,
2013-02-26 01:51:00,36.0,34.0,30.17,South,177,0.0,0.0,93,0.00,,,0.00,weatherlink.com 1.10,2013-02-26 09:51:00,
2013-02-26 02:06:00,35.7,34.0,30.17,South,177,0.0,0.0,93,0.00,,,0.00,weatherlink.com 1.10,2013-02-26 10:06:00,
2013-02-26 02:21:00,35.4,34.0,30.16,South,176,0.0,0.0,93,0.00,,,0.00,weatherlink.com 1.10,2013-02-26 10:21:00,
2013-02-26 02:36:00,35.1,33.0,30.16,South,177,0.0,0.0,93,0.00,,,0.00,weatherlink.com 1.10,2013-02-26 10:36:00,
2013-02-26 02:51:00,34.9,33.0,30.16,South,177,0.0,0.0,93,0.00,,,0.00,weatherlink.com 1.10,2013-02-26 10:51:00,
2013-02-26 03:06:00,34.6,33.0,30.16,South,177,0.0,0.0,93,0.00,,,0.00,weatherlink.com 1.10,2013-02-26 11:06:00,
2013-02-26 03:21:00,34.4,33.0,30.16,South,177,0.0,0.0,93,0.00,,,0.00,weatherlink.com 1.10,2013-02-26 11:21:00,
2013-02-26 03:36:00,34.4,33.0,30.16,South,177,0.0,0.0,93,0.00,,,0.00,weatherlink.com 1.10,2013-02-26 11:36:00,
2013-02-26 03:51:00,34.1,32.0,30.16,South,177,0.0,0.0,93,0.00,,,0.00,weatherlink.com 1.10,2013-02-26 11:51:00,
2013-02-26 04:06:00,34.0,32.0,30.16,South,177,0.0,0.0,93,0.00,,,0.00,weatherlink.com 1.10,2013-02-26 12:06:00,
2013-02-26 04:21:00,33.7,32.0,30.15,South,177,0.0,0.0,93,0.00,,,0.00,weatherlink.com 1.10,2013-02-26 12:21:00,
2013-02-26 04:36:00,33.5,32.0,30.15,South,177,0.0,0.0,93,0.00,,,0.00,weatherlink.com 1.10,2013-02-26 12:36:00,
2013-02-26 04:51:00,33.2,31.0,30.15,South,177,0.0,0.0,93,0.00,,,0.00,weatherlink.com 1.10,2013-02-26 12:51:00,
2013-02-26 05:06:00,33.1,32.0,30.14,South,177,0.0,0.0,94,0.00,,,0.00,weatherlink.com 1.10,2013-02-26 13:06:00,
2013-02-26 05:22:00,33.0,32.0,30.14,South,177,0.0,0.0,94,0.00,,,0.00,weatherlink.com 1.10,2013-02-26 13:22:00,
2013-02-26 05:37:00,32.9,31.0,30.15,South,176,0.0,0.0,94,0.00,,,0.00,weatherlink.com 1.10,2013-02-26 13:37:00,
2013-02-26 05:52:00,32.8,31.0,30.15,South,176,0.0,0.0,94,0.00,,,0.00,weatherlink.com 1.10,2013-02-26 13:52:00,
2013-02-26 06:07:00,32.9,31.0,30.15,South,176,0.0,0.0,94,0.00,,,0.00,weatherlink.com 1.10,2013-02-26 14:07:00,
2013-02-26 06:22:00,32.8,31.0,30.16,South,177,0.0,0.0,94,0.00,,,0.00,weatherlink.com 1.10,2013-02-26 14:22:00,
2013-02-26 06:37:00,32.8,31.0,30.16,South,177,0.0,1.0,94,0.00,,,0.00,weatherlink.com 1.10,2013-02-26 14:37:00,
2013-02-26 06:52:00,33.0,32.0,30.17,South,177,0.0,1.0,94,0.00,,,0.00,weatherlink.com 1.10,2013-02-26 14:52:00,
2013-02-26 07:07:00,33.2,32.0,30.17,South,177,0.0,0.0,95,0.00,,,0.00,weatherlink.com 1.10,2013-02-26 15:07:00,
2013-02-26 07:22:00,33.3,32.0,30.17,South,176,0.0,0.0,95,0.00,,,0.00,weatherlink.com 1.10,2013-02-26 15:22:00,
2013-02-26 07:37:00,34.0,33.0,30.17,South,177,0.0,0.0,96,0.00,,,0.00,weatherlink.com 1.10,2013-02-26 15:37:00,
2013-02-26 07:52:00,34.5,34.0,30.17,South,176,0.0,1.0,96,0.00,,,0.00,weatherlink.com 1.10,2013-02-26 15:52:00,
2013-02-26 08:07:00,35.3,34.0,30.17,South,177,0.0,1.0,95,0.00,,,0.00,weatherlink.com 1.10,2013-02-26 16:07:00,
2013-02-26 08:22:00,36.4,35.0,30.17,South,177,0.0,1.0,96,0.00,,,0.00,weatherlink.com 1.10,2013-02-26 16:22:00,
2013-02-26 08:37:00,38.0,37.0,30.16,South,177,0.0,1.0,97,0.00,,,0.00,weatherlink.com 1.10,2013-02-26 16:37:00,
2013-02-26 08:52:00,39.5,39.0,30.16,South,177,0.0,1.0,97,0.00,,,0.00,weatherlink.com 1.10,2013-02-26 16:52:00,
2013-02-26 09:07:00,40.9,39.0,30.16,South,176,0.0,1.0,93,0.00,,,0.00,weatherlink.com 1.10,2013-02-26 17:07:00,
2013-02-26 09:22:00,42.4,39.0,30.16,South,177,0.0,1.0,88,0.00,,,0.00,weatherlink.com 1.10,2013-02-26 17:22:00,
2013-02-26 09:37:00,44.0,39.0,30.16,South,176,0.0,1.0,81,0.00,,,0.00,weatherlink.com 1.10,2013-02-26 17:37:00,
2013-02-26 09:52:00,45.5,39.0,30.16,South,176,0.0,2.0,78,0.00,,,0.00,weatherlink.com 1.10,2013-02-26 17:52:00,
2013-02-26 10:07:00,46.5,39.0,30.16,South,177,1.0,1.0,75,0.00,,,0.00,weatherlink.com 1.10,2013-02-26 18:07:00,
2013-02-26 10:22:00,47.5,40.0,30.17,South,177,0.0,2.0,74,0.00,,,0.00,weatherlink.com 1.10,2013-02-26 18:22:00,
2013-02-26 10:37:00,48.3,40.0,30.17,South,177,0.0,1.0,73,0.00,,,0.00,weatherlink.com 1.10,2013-02-26 18:37:00,
2013-02-26 10:52:00,49.6,38.0,30.17,SSE,148,0.0,2.0,65,0.00,,,0.00,weatherlink.com 1.10,2013-02-26 18:52:00,
2013-02-26 11:07:00,50.1,39.0,30.17,SSE,164,0.0,2.0,67,0.00,,,0.00,weatherlink.com 1.10,2013-02-26 19:07:00,
2013-02-26 11:22:00,50.5,40.0,30.16,SSE,164,2.0,2.0,67,0.00,,,0.00,weatherlink.com 1.10,2013-02-26 19:22:00,
2013-02-26 11:37:00,51.0,41.0,30.16,SSE,165,1.0,2.0,69,0.00,,,0.00,weatherlink.com 1.10,2013-02-26 19:37:00,
2013-02-26 11:52:00,51.5,40.0,30.16,SSE,168,1.0,2.0,64,0.00,,,0.00,weatherlink.com 1.10,2013-02-26 19:52:00,
2013-02-26 12:07:00,51.9,39.0,30.15,South,169,1.0,2.0,61,0.00,,,0.00,weatherlink.com 1.10,2013-02-26 20:07:00,
2013-02-26 12:22:00,52.3,39.0,30.15,South,182,0.0,2.0,61,0.00,,,0.00,weatherlink.com 1.10,2013-02-26 20:22:00,
2013-02-26 12:37:00,52.7,40.0,30.14,South,182,1.0,2.0,62,0.00,,,0.00,weatherlink.com 1.10,2013-02-26 20:37:00,
2013-02-26 12:52:00,53.1,39.0,30.14,South,187,0.0,2.0,60,0.00,,,0.00,weatherlink.com 1.10,2013-02-26 20:52:00,
2013-02-26 13:07:00,53.6,40.0,30.13,South,187,0.0,3.0,61,0.00,,,0.00,weatherlink.com 1.10,2013-02-26 21:07:00,
2013-02-26 13:22:00,53.7,40.0,30.13,South,187,0.0,2.0,61,0.00,,,0.00,weatherlink.com 1.10,2013-02-26 21:22:00,
2013-02-26 13:37:00,53.7,39.0,30.12,South,182,0.0,2.0,59,0.00,,,0.00,weatherlink.com 1.10,2013-02-26 21:37:00,
2013-02-26 13:52:00,53.8,40.0,30.12,South,182,0.0,1.0,59,0.00,,,0.00,weatherlink.com 1.10,2013-02-26 21:52:00,
2013-02-26 14:08:00,53.9,39.0,30.11,South,182,1.0,2.0,58,0.00,,,0.00,weatherlink.com 1.10,2013-02-26 22:08:00,
2013-02-26 14:23:00,53.7,39.0,30.11,South,180,1.0,2.0,59,0.00,,,0.00,weatherlink.com 1.10,2013-02-26 22:23:00,
2013-02-26 14:38:00,53.8,40.0,30.11,South,180,0.0,2.0,59,0.00,,,0.00,weatherlink.com 1.10,2013-02-26 22:38:00,
2013-02-26 14:53:00,53.8,40.0,30.11,South,181,0.0,2.0,61,0.00,,,0.00,weatherlink.com 1.10,2013-02-26 22:53:00,
2013-02-26 15:08:00,53.9,41.0,30.11,South,181,0.0,2.0,61,0.00,,,0.00,weatherlink.com 1.10,2013-02-26 23:08:00,
2013-02-26 15:23:00,54.0,40.0,30.11,South,181,0.0,1.0,60,0.00,,,0.00,weatherlink.com 1.10,2013-02-26 23:23:00,
2013-02-26 15:38:00,53.9,40.0,30.11,South,182,0.0,2.0,60,0.00,,,0.00,weatherlink.com 1.10,2013-02-26 23:38:00,
2013-02-26 15:53:00,53.8,40.0,30.11,South,182,0.0,2.0,61,0.00,,,0.00,weatherlink.com 1.10,2013-02-26 23:53:00,
2013-02-26 16:08:00,53.7,39.0,30.11,South,182,1.0,2.0,59,0.00,,,0.00,weatherlink.com 1.10,2013-02-27 00:08:00,
2013-02-26 16:24:00,53.5,40.0,30.11,South,180,0.0,2.0,60,0.00,,,0.00,weatherlink.com 1.10,2013-02-27 00:24:00,
2013-02-26 16:38:00,53.2,39.0,30.11,South,180,1.0,1.0,60,0.00,,,0.00,weatherlink.com 1.10,2013-02-27 00:38:00,
2013-02-26 16:53:00,52.8,39.0,30.11,South,180,0.0,2.0,60,0.00,,,0.00,weatherlink.com 1.10,2013-02-27 00:53:00,
2013-02-26 17:08:00,52.3,39.0,30.12,South,180,0.0,1.0,61,0.00,,,0.00,weatherlink.com 1.10,2013-02-27 01:08:00,
2013-02-26 17:23:00,51.9,38.0,30.13,South,181,0.0,1.0,60,0.00,,,0.00,weatherlink.com 1.10,2013-02-27 01:23:00,
2013-02-26 17:38:00,51.4,39.0,30.12,South,181,0.0,0.0,63,0.00,,,0.00,weatherlink.com 1.10,2013-02-27 01:38:00,
2013-02-26 17:53:00,51.0,40.0,30.13,South,181,0.0,0.0,65,0.00,,,0.00,weatherlink.com 1.10,2013-02-27 01:53:00,
2013-02-26 18:08:00,50.5,40.0,30.13,South,181,0.0,1.0,67,0.00,,,0.00,weatherlink.com 1.10,2013-02-27 02:08:00,
2013-02-26 18:23:00,50.0,40.0,30.14,SSW,195,0.0,1.0,68,0.00,,,0.00,weatherlink.com 1.10,2013-02-27 02:23:00,
2013-02-26 18:38:00,49.4,40.0,30.14,SSW,195,0.0,0.0,70,0.00,,,0.00,weatherlink.com 1.10,2013-02-27 02:38:00,
2013-02-26 18:53:00,48.7,40.0,30.15,SSW,195,0.0,0.0,71,0.00,,,0.00,weatherlink.com 1.10,2013-02-27 02:53:00,
2013-02-26 19:08:00,48.1,39.0,30.15,SSW,195,0.0,0.0,72,0.00,,,0.00,weatherlink.com 1.10,2013-02-27 03:08:00,
2013-02-26 19:23:00,47.2,39.0,30.16,SSW,195,0.0,1.0,72,0.00,,,0.00,weatherlink.com 1.10,2013-02-27 03:23:00,
2013-02-26 19:38:00,46.4,38.0,30.16,SSW,195,0.0,0.0,73,0.00,,,0.00,weatherlink.com 1.10,2013-02-27 03:38:00,
2013-02-26 19:53:00,45.8,38.0,30.16,SSW,195,0.0,0.0,74,0.00,,,0.00,weatherlink.com 1.10,2013-02-27 03:53:00,
2013-02-26 20:08:00,45.0,38.0,30.17,SSW,195,0.0,0.0,75,0.00,,,0.00,weatherlink.com 1.10,2013-02-27 04:08:00,
2013-02-26 20:23:00,44.3,37.0,30.17,SSW,195,0.0,1.0,76,0.00,,,0.00,weatherlink.com 1.10,2013-02-27 04:23:00,
2013-02-26 20:38:00,43.8,37.0,30.17,SSW,195,0.0,0.0,77,0.00,,,0.00,weatherlink.com 1.10,2013-02-27 04:38:00,
2013-02-26 20:53:00,43.2,37.0,30.17,SSW,195,0.0,1.0,78,0.00,,,0.00,weatherlink.com 1.10,2013-02-27 04:53:00,
2013-02-26 21:08:00,42.7,37.0,30.18,SSW,195,0.0,1.0,79,0.00,,,0.00,weatherlink.com 1.10,2013-02-27 05:08:00,
2013-02-26 21:23:00,42.3,36.0,30.18,North,355,0.0,2.0,79,0.00,,,0.00,weatherlink.com 1.10,2013-02-27 05:23:00,
2013-02-26 21:38:00,41.9,36.0,30.18,North,355,0.0,1.0,80,0.00,,,0.00,weatherlink.com 1.10,2013-02-27 05:38:00,
2013-02-26 21:53:00,41.6,36.0,30.18,North,355,0.0,0.0,81,0.00,,,0.00,weatherlink.com 1.10,2013-02-27 05:53:00,
2013-02-26 22:08:00,41.3,36.0,30.19,North,355,0.0,1.0,81,0.00,,,0.00,weatherlink.com 1.10,2013-02-27 06:08:00,
2013-02-26 22:23:00,41.1,36.0,30.18,North,355,0.0,1.0,83,0.00,,,0.00,weatherlink.com 1.10,2013-02-27 06:23:00,
2013-02-26 22:41:00,40.7,36.0,30.18,North,355,0.0,1.0,82,0.00,,,0.00,weatherlink.com 1.10,2013-02-27 06:41:00,
2013-02-26 22:53:00,40.6,36.0,30.18,North,355,0.0,2.0,83,0.00,,,0.00,weatherlink.com 1.10,2013-02-27 06:53:00,
2013-02-26 23:08:00,40.2,35.0,30.19,North,355,0.0,1.0,83,0.00,,,0.00,weatherlink.com 1.10,2013-02-27 07:08:00,
2013-02-26 23:23:00,39.8,35.0,30.19,North,355,0.0,1.0,83,0.00,,,0.00,weatherlink.com 1.10,2013-02-27 07:23:00,
2013-02-26 23:38:00,39.3,35.0,30.19,North,355,0.0,1.0,84,0.00,,,0.00,weatherlink.com 1.10,2013-02-27 07:38:00,
2013-02-26 23:53:00,39.0,35.0,30.19,North,355,0.0,1.0,85,0.00,,,0.00,weatherlink.com 1.10,2013-02-27 07:53:00,